Time;durP1;ratioP1;P1;durP2;ratioP2;P2;SDS_P1;SDS_P2;PMS_P1;PMS_P2;Temp;Humidity;BMP_temperature;BMP_pressure;BME280_temperature;BME280_humidity;BME280_pressure;Samples;Min_cycle;Max_cycle;Signal;HPM_P1;HPM_P2
2023/07/11 00:00:59;;;;;;;5.78;4.90;;;;;;;;;;2579320;23;19992;-89
2023/07/11 00:02:00;;;;;;;6.65;4.70;;;;;;;;;;2591736;22;20015;-89
2023/07/11 00:03:01;;;;;;;5.70;4.53;;;;;;;;;;2587037;23;20024;-89
2023/07/11 00:04:04;;;;;;;5.50;4.93;;;;;;;;;;2568938;23;20036;-90
2023/07/11 00:05:05;;;;;;;5.85;5.28;;;;;;;;;;2573146;23;19996;-89
2023/07/11 00:06:08;;;;;;;6.38;5.03;;;;;;;;;;2573001;23;19989;-90
2023/07/11 00:07:09;;;;;;;6.00;4.57;;;;;;;;;;2573127;23;20072;-90
2023/07/11 00:08:09;;;;;;;5.40;4.82;;;;;;;;;;2580653;23;19996;-89
2023/07/11 00:09:09;;;;;;;4.70;4.30;;;;;;;;;;2584711;23;19988;-89
2023/07/11 00:10:12;;;;;;;6.93;4.90;;;;;;;;;;2580356;23;20440;-89
2023/07/11 00:11:15;;;;;;;5.55;5.03;;;;;;;;;;2567822;23;20054;-89
2023/07/11 00:12:16;;;;;;;6.32;5.38;;;;;;;;;;2568417;23;19997;-90
2023/07/11 00:13:17;;;;;;;5.82;5.22;;;;;;;;;;2584866;23;20003;-89
2023/07/11 00:14:17;;;;;;;6.18;4.82;;;;;;;;;;2567821;23;20008;-89
2023/07/11 00:15:18;;;;;;;6.38;4.85;;;;;;;;;;2568202;23;20023;-89
2023/07/11 00:16:19;;;;;;;5.67;5.13;;;;;;;;;;2135858;23;10327814;-89
2023/07/11 00:17:19;;;;;;;6.28;5.22;;;;;;;;;;2571288;23;19997;-88
2023/07/11 00:18:20;;;;;;;5.47;4.80;;;;;;;;;;2564526;23;20339;-89
2023/07/11 00:19:20;;;;;;;5.15;4.65;;;;;;;;;;2567687;23;20001;-89
2023/07/11 00:20:20;;;;;;;5.65;5.15;;;;;;;;;;2572301;23;20537;-89
2023/07/11 00:21:21;;;;;;;5.22;4.72;;;;;;;;;;2555476;23;20037;-89
2023/07/11 00:22:23;;;;;;;5.32;4.82;;;;;;;;;;2555525;23;20352;-89
2023/07/11 00:23:24;;;;;;;4.85;4.38;;;;;;;;;;2567718;23;20096;-89
2023/07/11 00:24:33;;;;;;;5.96;5.19;;;;;;;;;;2448859;23;10144326;-89
2023/07/11 00:25:34;;;;;;;7.38;5.13;;;;;;;;;;2556862;23;20723;-89
2023/07/11 00:26:34;;;;;;;6.22;5.18;;;;;;;;;;2567838;23;20011;-89
2023/07/11 00:27:35;;;;;;;6.05;4.97;;;;;;;;;;2572039;23;20000;-89
2023/07/11 00:28:36;;;;;;;5.72;4.93;;;;;;;;;;2560426;23;20000;-89
2023/07/11 00:29:37;;;;;;;7.32;5.20;;;;;;;;;;2567877;23;20004;-90
2023/07/11 00:30:41;;;;;;;5.10;4.60;;;;;;;;;;2555743;23;19997;-90
2023/07/11 00:31:41;;;;;;;4.93;4.43;;;;;;;;;;2555617;23;20121;-88
2023/07/11 00:32:42;;;;;;;5.80;4.82;;;;;;;;;;2555480;23;19996;-89
2023/07/11 00:33:42;;;;;;;6.85;5.15;;;;;;;;;;2559596;23;20024;-88
2023/07/11 00:34:43;;;;;;;5.40;4.90;;;;;;;;;;2560542;23;20504;-89
2023/07/11 00:35:45;;;;;;;4.25;3.85;;;;;;;;;;2123203;23;10133192;-89
2023/07/11 00:36:45;;;;;;;5.30;4.80;;;;;;;;;;2559823;23;20000;-89
2023/07/11 00:37:46;;;;;;;7.47;4.95;;;;;;;;;;2567773;23;20001;-89
2023/07/11 00:38:46;;;;;;;5.47;4.70;;;;;;;;;;2555282;23;20461;-88
2023/07/11 00:39:46;;;;;;;6.57;4.57;;;;;;;;;;2543154;23;19994;-90
2023/07/11 00:40:49;;;;;;;6.90;4.72;;;;;;;;;;2555390;23;19997;-88
2023/07/11 00:41:50;;;;;;;5.38;4.88;;;;;;;;;;2571726;23;20067;-89
2023/07/11 00:42:53;;;;;;;6.70;4.70;;;;;;;;;;2556131;23;19997;-89
2023/07/11 00:43:53;;;;;;;5.43;4.93;;;;;;;;;;2544429;23;20152;-89
2023/07/11 00:45:03;;;;;;;5.00;4.47;;;;;;;;;;2560617;23;19997;-89
2023/07/11 00:46:04;;;;;;;5.78;4.78;;;;;;;;;;2561306;23;19989;-89
2023/07/11 00:47:04;;;;;;;5.53;4.80;;;;;;;;;;2556298;23;20035;-89
2023/07/11 00:48:05;;;;;;;6.07;4.80;;;;;;;;;;2544129;23;20013;-89
2023/07/11 00:49:07;;;;;;;5.95;4.78;;;;;;;;;;2560276;23;20001;-88
2023/07/11 00:50:08;;;;;;;7.82;5.25;;;;;;;;;;2556214;23;20342;-88
2023/07/11 00:51:11;;;;;;;5.13;4.65;;;;;;;;;;2543993;23;20347;-88
2023/07/11 00:52:15;;;;;;;5.15;4.65;;;;;;;;;;2544865;23;20001;-88
2023/07/11 00:53:15;;;;;;;7.53;5.70;;;;;;;;;;2560367;23;20435;-89
2023/07/11 00:54:19;;;;;;;6.13;5.53;;;;;;;;;;2568232;23;20001;-88
2023/07/11 00:55:19;;;;;;;5.82;5.32;;;;;;;;;;2571829;23;20008;-89
2023/07/11 00:56:24;;;;;;;6.45;5.65;;;;;;;;;;2561276;23;20026;-88
2023/07/11 00:57:30;;;;;;;11.75;6.35;;;;;;;;;;2562112;23;19992;-88
2023/07/11 00:58:32;;;;;;;6.63;5.80;;;;;;;;;;2561927;23;20103;-88
2023/07/11 00:59:33;;;;;;;7.28;5.55;;;;;;;;;;2568640;23;20585;-88
2023/07/11 01:00:33;;;;;;;6.00;5.35;;;;;;;;;;2555774;23;20063;-88
2023/07/11 01:01:34;;;;;;;6.60;5.90;;;;;;;;;;2559949;23;19993;-88
2023/07/11 01:02:34;;;;;;;9.55;5.80;;;;;;;;;;2568208;23;20358;-88
2023/07/11 01:03:35;;;;;;;;;;;;;;;;;;2130317;23;10235146;-88
2023/07/11 01:04:38;;;;;;;6.00;5.40;;;;;;;;;;2572861;23;19908;-88
2023/07/11 01:05:39;;;;;;;7.03;5.32;;;;;;;;;;2555157;23;19993;-87
2023/07/11 01:06:39;;;;;;;7.95;6.47;;;;;;;;;;2545048;23;20076;-88
2023/07/11 01:07:40;;;;;;;9.05;6.60;;;;;;;;;;2560313;23;20139;-88
2023/07/11 01:08:41;;;;;;;6.65;5.88;;;;;;;;;;2561164;23;19996;-88
2023/07/11 01:09:41;;;;;;;7.55;6.57;;;;;;;;;;2556174;23;20053;-88
2023/07/11 01:10:42;;;;;;;8.43;6.38;;;;;;;;;;2543960;23;20501;-88
2023/07/11 01:11:56;;;;;;;7.97;6.28;;;;;;;;;;2555887;23;20001;-88
2023/07/11 01:12:59;;;;;;;7.63;6.82;;;;;;;;;;2570175;23;20012;-88
2023/07/11 01:14:00;;;;;;;6.85;6.13;;;;;;;;;;2556044;23;20047;-88
2023/07/11 01:15:00;;;;;;;7.25;6.45;;;;;;;;;;2560146;23;20048;-88
2023/07/11 01:16:00;;;;;;;7.22;6.53;;;;;;;;;;2561101;23;19996;-88
2023/07/11 01:17:18;;;;;;;6.78;6.18;;;;;;;;;;2568540;23;19988;-88
2023/07/11 01:18:18;;;;;;;7.90;6.32;;;;;;;;;;2567966;23;19996;-88
2023/07/11 01:19:20;;;;;;;6.93;6.22;;;;;;;;;;2570246;23;20005;-88
2023/07/11 01:20:22;;;;;;;8.13;6.47;;;;;;;;;;2134581;23;10116321;-88
2023/07/11 01:21:23;;;;;;;7.72;6.53;;;;;;;;;;2568423;23;20011;-88
2023/07/11 01:22:25;;;;;;;7.20;6.50;;;;;;;;;;2585004;23;19992;-88
2023/07/11 01:23:26;;;;;;;9.50;6.93;;;;;;;;;;2573411;23;20509;-88
2023/07/11 01:24:26;;;;;;;8.32;6.47;;;;;;;;;;2580483;23;20068;-88
2023/07/11 01:25:27;;;;;;;7.70;6.93;;;;;;;;;;2584972;23;20071;-89
2023/07/11 01:26:27;;;;;;;9.02;7.18;;;;;;;;;;2573728;23;20000;-89
2023/07/11 01:27:27;;;;;;;8.57;6.80;;;;;;;;;;2568355;23;20004;-89
2023/07/11 01:28:28;;;;;;;7.55;6.65;;;;;;;;;;2572622;23;20108;-89
2023/07/11 01:29:29;;;;;;;8.20;6.78;;;;;;;;;;2573393;23;19997;-89
2023/07/11 01:30:29;;;;;;;9.40;7.18;;;;;;;;;;2573570;23;19992;-89
2023/07/11 01:31:33;;;;;;;7.07;6.38;;;;;;;;;;2581053;23;20003;-88
2023/07/11 01:32:34;;;;;;;6.35;5.72;;;;;;;;;;2584724;23;20315;-89
2023/07/11 01:33:34;;;;;;;9.75;7.25;;;;;;;;;;2568528;23;20034;-89
2023/07/11 01:34:34;;;;;;;8.05;6.50;;;;;;;;;;2572712;23;20054;-89
2023/07/11 01:35:35;;;;;;;7.72;6.70;;;;;;;;;;2573486;23;20342;-89
2023/07/11 01:36:35;;;;;;;7.05;6.38;;;;;;;;;;2573653;23;20024;-89
2023/07/11 01:37:36;;;;;;;11.48;6.80;;;;;;;;;;2568157;23;20336;-89
2023/07/11 01:38:37;;;;;;;10.18;6.57;;;;;;;;;;2572531;23;19997;-89
2023/07/11 01:39:42;;;;;;;10.18;6.63;;;;;;;;;;2301273;23;10246264;-89
2023/07/11 01:40:42;;;;;;;11.38;6.78;;;;;;;;;;2581274;23;20205;-89
2023/07/11 01:41:43;;;;;;;7.63;6.70;;;;;;;;;;2583251;23;19996;-89
2023/07/11 01:42:44;;;;;;;8.75;6.55;;;;;;;;;;2573417;23;20007;-90
2023/07/11 01:43:44;;;;;;;9.23;6.55;;;;;;;;;;2573559;23;20440;-89
2023/07/11 01:44:45;;;;;;;10.55;7.05;;;;;;;;;;2573511;23;19992;-88
2023/07/11 01:45:45;;;;;;;8.85;7.03;;;;;;;;;;2568528;23;20089;-90
2023/07/11 01:46:46;;;;;;;7.82;6.97;;;;;;;;;;2555993;23;19997;-90
2023/07/11 01:47:46;;;;;;;10.13;6.82;;;;;;;;;;2572619;23;20008;-90
2023/07/11 01:48:46;;;;;;;7.07;6.32;;;;;;;;;;2573279;23;19999;-90
2023/07/11 01:49:47;;;;;;;9.57;7.13;;;;;;;;;;2573412;23;20000;-90
2023/07/11 01:50:47;;;;;;;7.97;6.63;;;;;;;;;;2573336;23;20360;-90
2023/07/11 01:51:48;;;;;;;8.00;7.13;;;;;;;;;;2580858;23;20080;-90
2023/07/11 01:52:48;;;;;;;8.25;7.03;;;;;;;;;;2585351;23;20057;-90
2023/07/11 01:53:49;;;;;;;7.90;6.57;;;;;;;;;;2574611;23;20003;-86
2023/07/11 01:54:50;;;;;;;7.53;6.70;;;;;;;;;;2584229;23;19996;-90
2023/07/11 01:56:02;;;;;;;12.15;6.80;;;;;;;;;;2584939;23;19996;-90
2023/07/11 01:57:03;;;;;;;8.75;6.20;;;;;;;;;;2568346;23;20015;-89
2023/07/11 01:58:03;;;;;;;8.10;6.85;;;;;;;;;;2572435;23;20087;-89
2023/07/11 01:59:04;;;;;;;7.25;6.63;;;;;;;;;;2580502;23;19996;-89
2023/07/11 02:00:07;;;;;;;8.65;6.35;;;;;;;;;;2585071;23;20039;-90
2023/07/11 02:01:07;;;;;;;7.50;6.13;;;;;;;;;;2132992;23;10250506;-89
2023/07/11 02:02:09;;;;;;;8.40;6.95;;;;;;;;;;2582227;23;20024;-90
2023/07/11 02:03:09;;;;;;;6.93;6.25;;;;;;;;;;2569196;23;19992;-89
2023/07/11 02:04:10;;;;;;;7.53;6.60;;;;;;;;;;2568412;23;20072;-90
2023/07/11 02:05:10;;;;;;;9.43;6.53;;;;;;;;;;2585076;23;20023;-90
2023/07/11 02:06:11;;;;;;;6.97;6.28;;;;;;;;;;2573636;23;19999;-90
2023/07/11 02:07:11;;;;;;;10.68;6.65;;;;;;;;;;2573410;23;20002;-89
2023/07/11 02:08:12;;;;;;;7.05;6.10;;;;;;;;;;2580940;23;20559;-90
2023/07/11 02:09:12;;;;;;;7.60;6.85;;;;;;;;;;2585338;23;20098;-90
2023/07/11 02:10:12;;;;;;;7.13;6.40;;;;;;;;;;2581054;23;20029;-90
2023/07/11 02:11:13;;;;;;;8.60;7.80;;;;;;;;;;2580782;23;20074;-89
2023/07/11 02:12:14;;;;;;;8.55;6.47;;;;;;;;;;2580667;23;20398;-90
2023/07/11 02:13:14;;;;;;;6.95;6.25;;;;;;;;;;2580697;23;20018;-89
2023/07/11 02:14:20;;;;;;;9.38;6.45;;;;;;;;;;2563608;23;20013;-90
2023/07/11 02:15:20;;;;;;;6.95;6.35;;;;;;;;;;2572554;23;19997;-90
2023/07/11 02:16:20;;;;;;;8.80;7.10;;;;;;;;;;2573451;23;20052;-90
2023/07/11 02:17:21;;;;;;;7.18;6.47;;;;;;;;;;2580939;23;20111;-90
2023/07/11 02:18:21;;;;;;;8.73;6.85;;;;;;;;;;2585002;23;20023;-90
2023/07/11 02:19:24;;;;;;;9.13;6.63;;;;;;;;;;2568001;23;20004;-89
2023/07/11 02:20:24;;;;;;;11.13;6.95;;;;;;;;;;2130255;23;10236391;-89
2023/07/11 02:21:25;;;;;;;33.13;8.68;;;;;;;;;;2568237;23;19993;-91
2023/07/11 02:22:25;;;;;;;35.40;8.25;;;;;;;;;;2558520;23;20439;-90
2023/07/11 02:23:26;;;;;;;15.93;7.28;;;;;;;;;;2559977;23;20004;-90
2023/07/11 02:24:26;;;;;;;15.40;6.60;;;;;;;;;;2563460;23;19997;-90
2023/07/11 02:25:27;;;;;;;10.98;6.72;;;;;;;;;;2568929;23;19993;-89
2023/07/11 02:26:27;;;;;;;8.13;7.05;;;;;;;;;;2578013;23;20041;-90
2023/07/11 02:27:28;;;;;;;9.38;6.13;;;;;;;;;;2575007;23;19997;-89
2023/07/11 02:28:28;;;;;;;8.30;6.82;;;;;;;;;;2556060;23;20125;-89
2023/07/11 02:29:28;;;;;;;8.68;6.25;;;;;;;;;;2555596;23;20462;-89
2023/07/11 02:30:29;;;;;;;10.02;6.40;;;;;;;;;;2572496;23;20004;-90
2023/07/11 02:31:30;;;;;;;6.80;6.10;;;;;;;;;;2568209;23;20252;-90
2023/07/11 02:32:31;;;;;;;6.88;6.10;;;;;;;;;;2555765;23;19996;-89
2023/07/11 02:33:31;;;;;;;9.40;7.05;;;;;;;;;;2559646;23;19997;-90
2023/07/11 02:34:32;;;;;;;8.52;6.22;;;;;;;;;;2560320;23;19997;-89
2023/07/11 02:35:32;;;;;;;10.95;6.85;;;;;;;;;;2567688;23;20004;-89
2023/07/11 02:36:33;;;;;;;10.68;6.75;;;;;;;;;;2567690;23;20031;-90
2023/07/11 02:37:33;;;;;;;8.20;6.65;;;;;;;;;;2571908;23;20573;-90
2023/07/11 02:38:34;;;;;;;10.85;6.47;;;;;;;;;;2560294;23;19992;-90
2023/07/11 02:39:34;;;;;;;8.40;6.32;;;;;;;;;;2567834;23;20047;-90
2023/07/11 02:40:34;;;;;;;9.15;5.70;;;;;;;;;;2555393;23;19997;-89
2023/07/11 02:41:35;;;;;;;7.65;6.63;;;;;;;;;;2543002;23;20094;-90
2023/07/11 02:42:35;;;;;;;7.03;6.32;;;;;;;;;;2556251;23;20343;-89
2023/07/11 02:43:35;;;;;;;7.90;6.15;;;;;;;;;;2576791;23;19993;-89
2023/07/11 02:44:36;;;;;;;9.70;6.75;;;;;;;;;;2560605;23;20079;-90
2023/07/11 02:45:36;;;;;;;8.07;7.25;;;;;;;;;;2555367;23;20277;-90
2023/07/11 02:46:37;;;;;;;9.15;6.57;;;;;;;;;;2543091;23;20443;-90
2023/07/11 02:47:37;;;;;;;11.25;6.70;;;;;;;;;;2555416;23;20378;-90
2023/07/11 02:48:38;;;;;;;8.35;6.50;;;;;;;;;;2572014;23;20020;-89
2023/07/11 02:49:40;;;;;;;9.27;6.15;;;;;;;;;;2555438;23;20009;-90
2023/07/11 02:50:41;;;;;;;10.02;6.32;;;;;;;;;;2543557;23;20002;-89
2023/07/11 02:51:41;;;;;;;9.93;6.97;;;;;;;;;;2559227;23;20571;-89
2023/07/11 02:52:42;;;;;;;15.57;7.10;;;;;;;;;;2567444;23;19996;-90
2023/07/11 02:53:42;;;;;;;7.43;6.47;;;;;;;;;;2571613;23;20087;-89
2023/07/11 02:54:43;;;;;;;13.45;7.13;;;;;;;;;;2567434;23;19996;-89
2023/07/11 02:55:43;;;;;;;11.90;6.53;;;;;;;;;;2567610;23;20071;-89
2023/07/11 02:56:44;;;;;;;9.57;6.60;;;;;;;;;;2571839;23;20063;-89
2023/07/11 02:57:44;;;;;;;8.40;6.53;;;;;;;;;;2566846;23;20000;-89
2023/07/11 02:58:45;;;;;;;10.07;6.85;;;;;;;;;;2567561;23;20001;-89
2023/07/11 02:59:46;;;;;;;10.48;6.75;;;;;;;;;;2567294;23;19996;-89
2023/07/11 03:00:53;;;;;;;8.05;6.72;;;;;;;;;;2571921;23;20425;-89
2023/07/11 03:01:53;;;;;;;7.65;6.50;;;;;;;;;;2560457;23;20008;-89
2023/07/11 03:02:53;;;;;;;8.90;6.28;;;;;;;;;;2559867;23;20097;-89
2023/07/11 03:03:54;;;;;;;10.65;6.35;;;;;;;;;;2567127;23;20027;-89
2023/07/11 03:04:55;;;;;;;9.02;6.75;;;;;;;;;;2571731;23;20025;-89
2023/07/11 03:05:56;;;;;;;7.10;6.38;;;;;;;;;;2560312;23;20015;-89
2023/07/11 03:06:56;;;;;;;9.35;6.28;;;;;;;;;;2555154;23;20009;-89
2023/07/11 03:07:57;;;;;;;10.15;7.25;;;;;;;;;;2555117;23;20019;-90
2023/07/11 03:08:57;;;;;;;12.68;6.80;;;;;;;;;;2554875;23;19996;-89
2023/07/11 03:09:57;;;;;;;11.82;7.00;;;;;;;;;;2559050;23;20007;-89
2023/07/11 03:10:59;;;;;;;9.85;7.25;;;;;;;;;;2141661;23;10001475;-89
2023/07/11 03:12:00;;;;;;;12.35;7.18;;;;;;;;;;2555403;23;20503;-88
2023/07/11 03:13:00;;;;;;;8.00;6.90;;;;;;;;;;2561451;23;20000;-89
2023/07/11 03:14:01;;;;;;;19.92;7.68;;;;;;;;;;2555572;23;20000;-89
2023/07/11 03:15:02;;;;;;;13.25;7.78;;;;;;;;;;2559277;23;20381;-89
2023/07/11 03:16:04;;;;;;;11.13;7.25;;;;;;;;;;2567573;23;20050;-89
2023/07/11 03:17:04;;;;;;;10.30;7.15;;;;;;;;;;2571705;23;20000;-89
2023/07/11 03:18:06;;;;;;;12.23;7.28;;;;;;;;;;2555046;23;19997;-89
2023/07/11 03:19:06;;;;;;;14.15;9.10;;;;;;;;;;2555170;23;20004;-89
2023/07/11 03:20:07;;;;;;;13.77;8.55;;;;;;;;;;2579509;23;20342;-89
2023/07/11 03:21:08;;;;;;;10.40;8.90;;;;;;;;;;2580033;23;19996;-89
2023/07/11 03:22:08;;;;;;;11.40;8.32;;;;;;;;;;2567847;23;19993;-89
2023/07/11 03:23:12;;;;;;;11.13;7.72;;;;;;;;;;2571758;23;19992;-89
2023/07/11 03:24:12;;;;;;;10.35;7.78;;;;;;;;;;2579964;23;19996;-89
2023/07/11 03:25:12;;;;;;;11.23;7.88;;;;;;;;;;2579916;23;20000;-90
2023/07/11 03:26:13;;;;;;;10.95;7.75;;;;;;;;;;2580220;23;20349;-89
2023/07/11 03:27:13;;;;;;;14.10;7.15;;;;;;;;;;2584424;23;19999;-89
2023/07/11 03:28:14;;;;;;;9.20;7.47;;;;;;;;;;2567619;23;19999;-90
2023/07/11 03:29:15;;;;;;;10.68;8.63;;;;;;;;;;2571726;23;19993;-89
2023/07/11 03:30:16;;;;;;;12.75;6.97;;;;;;;;;;2572748;23;20030;-90
2023/07/11 03:31:16;;;;;;;10.90;7.55;;;;;;;;;;2568838;23;20096;-89
2023/07/11 03:32:17;;;;;;;15.40;9.23;;;;;;;;;;2557880;23;19997;-87
2023/07/11 03:33:17;;;;;;;;;;;;;;;;;;2112457;23;10412362;-89
2023/07/11 03:34:18;;;;;;;10.70;7.27;;;;;;;;;;2555501;23;19926;-88
2023/07/11 03:35:18;;;;;;;13.65;7.40;;;;;;;;;;2581300;23;20075;-89
2023/07/11 03:36:20;;;;;;;9.52;6.80;;;;;;;;;;2580110;23;20141;-89
2023/07/11 03:37:20;;;;;;;7.57;6.50;;;;;;;;;;2567357;23;20004;-89
2023/07/11 03:38:21;;;;;;;8.23;7.05;;;;;;;;;;2567948;23;20461;-89
2023/07/11 03:39:21;;;;;;;10.07;7.25;;;;;;;;;;2584735;23;20031;-88
2023/07/11 03:40:22;;;;;;;9.20;7.28;;;;;;;;;;2132836;23;10141710;-89
2023/07/11 03:41:25;;;;;;;10.85;6.50;;;;;;;;;;2569741;23;20386;-88
2023/07/11 03:42:35;;;;;;;7.82;6.93;;;;;;;;;;2588861;23;20007;-89
2023/07/11 03:46:18;;;;;;;7.63;6.88;;;;;;;;;;2566343;22;20271;-95
2023/07/11 03:47:18;;;;;;;9.73;6.50;;;;;;;;;;2570968;23;20015;-95
2023/07/11 03:48:19;;;;;;;9.80;6.53;;;;;;;;;;2558321;23;20028;-95
2023/07/11 03:49:19;;;;;;;9.77;7.65;;;;;;;;;;2569950;23;19996;-94
2023/07/11 03:50:21;;;;;;;10.27;7.10;;;;;;;;;;2570837;23;19992;-90
2023/07/11 03:51:21;;;;;;;9.98;7.13;;;;;;;;;;2555423;23;20001;-88
2023/07/11 03:52:23;;;;;;;12.35;9.27;;;;;;;;;;2554995;23;20491;-88
2023/07/11 03:53:24;;;;;;;10.57;7.63;;;;;;;;;;2555331;23;20425;-88
2023/07/11 03:54:24;;;;;;;10.57;7.55;;;;;;;;;;2571712;23;19996;-88
2023/07/11 03:55:24;;;;;;;13.00;7.55;;;;;;;;;;2567369;23;20028;-90
2023/07/11 03:56:27;;;;;;;14.90;7.55;;;;;;;;;;2571836;23;20497;-90
2023/07/11 03:57:28;;;;;;;12.30;7.55;;;;;;;;;;2585172;23;20426;-88
2023/07/11 03:58:28;;;;;;;14.43;7.00;;;;;;;;;;2585015;23;20019;-89
2023/07/11 03:59:30;;;;;;;8.68;6.40;;;;;;;;;;2567500;23;20205;-89
2023/07/11 04:00:31;;;;;;;9.20;6.82;;;;;;;;;;2571791;23;20031;-90
2023/07/11 04:01:31;;;;;;;9.15;6.90;;;;;;;;;;2584953;23;20469;-89
2023/07/11 04:02:32;;;;;;;7.78;7.03;;;;;;;;;;2585208;23;20363;-88
2023/07/11 04:03:32;;;;;;;11.98;6.90;;;;;;;;;;2585240;23;20019;-88
2023/07/11 04:04:33;;;;;;;12.65;7.85;;;;;;;;;;2585068;23;20330;-89
2023/07/11 04:05:33;;;;;;;12.75;7.13;;;;;;;;;;2587612;23;19999;-89
2023/07/11 04:06:34;;;;;;;10.58;6.58;;;;;;;;;;2133694;23;10161197;-89
2023/07/11 04:07:34;;;;;;;12.13;6.50;;;;;;;;;;2555906;23;20023;-90
2023/07/11 04:08:34;;;;;;;10.23;6.93;;;;;;;;;;2572224;23;19999;-90
2023/07/11 04:09:35;;;;;;;8.93;6.28;;;;;;;;;;2585463;23;19996;-90
2023/07/11 04:10:35;;;;;;;13.23;6.65;;;;;;;;;;2567434;23;20072;-90
2023/07/11 04:11:36;;;;;;;12.10;6.07;;;;;;;;;;2567550;23;20382;-90
2023/07/11 04:12:38;;;;;;;14.52;10.23;;;;;;;;;;2571549;23;19993;-90
2023/07/11 04:13:48;;;;;;;16.48;12.05;;;;;;;;;;2584935;23;19993;-90
2023/07/11 04:14:48;;;;;;;9.75;7.40;;;;;;;;;;2584944;23;19996;-90
2023/07/11 04:15:49;;;;;;;10.63;6.93;;;;;;;;;;2581312;23;20098;-89
2023/07/11 04:16:49;;;;;;;10.50;6.40;;;;;;;;;;2580339;23;19996;-88
2023/07/11 04:17:50;;;;;;;8.80;6.13;;;;;;;;;;2584861;23;19996;-89
2023/07/11 04:18:50;;;;;;;11.35;7.75;;;;;;;;;;2584673;23;19996;-89
2023/07/11 04:19:51;;;;;;;9.32;7.22;;;;;;;;;;2585311;23;20075;-89
2023/07/11 04:20:51;;;;;;;7.47;6.60;;;;;;;;;;2570110;23;19996;-89
2023/07/11 04:21:52;;;;;;;7.53;6.78;;;;;;;;;;2572812;23;20067;-89
2023/07/11 04:22:52;;;;;;;11.10;8.20;;;;;;;;;;2567456;23;20238;-89
2023/07/11 04:23:53;;;;;;;10.35;7.38;;;;;;;;;;2556700;23;20421;-89
2023/07/11 04:24:53;;;;;;;12.18;6.78;;;;;;;;;;2567479;23;20003;-89
2023/07/11 04:25:54;;;;;;;12.43;7.80;;;;;;;;;;2567540;23;20059;-89
2023/07/11 04:26:54;;;;;;;11.77;8.10;;;;;;;;;;2571664;23;19997;-89
2023/07/11 04:27:56;;;;;;;9.75;7.00;;;;;;;;;;2584848;23;20011;-88
2023/07/11 04:28:56;;;;;;;13.07;7.40;;;;;;;;;;2142092;22;10272979;-89
2023/07/11 04:29:56;;;;;;;12.48;7.68;;;;;;;;;;2567155;23;20500;-88
2023/07/11 04:30:57;;;;;;;13.50;7.20;;;;;;;;;;2567395;23;19992;-90
2023/07/11 04:31:57;;;;;;;14.90;8.02;;;;;;;;;;2567277;23;19996;-89
2023/07/11 04:32:58;;;;;;;10.77;6.82;;;;;;;;;;2567218;23;20059;-91
2023/07/11 04:33:59;;;;;;;12.38;7.10;;;;;;;;;;2571540;23;20055;-90
2023/07/11 04:34:59;;;;;;;10.60;6.63;;;;;;;;;;2584604;23;20319;-89
2023/07/11 04:36:13;;;;;;;9.13;6.50;;;;;;;;;;2567137;23;20032;-90
2023/07/11 04:37:14;;;;;;;14.55;6.70;;;;;;;;;;2570491;23;19992;-90
2023/07/11 04:38:14;;;;;;;9.68;6.38;;;;;;;;;;2567512;23;20003;-90
2023/07/11 04:39:14;;;;;;;9.40;6.45;;;;;;;;;;2567584;23;20071;-90
2023/07/11 04:40:15;;;;;;;10.63;6.47;;;;;;;;;;2567628;23;20027;-89
2023/07/11 04:41:16;;;;;;;10.50;6.47;;;;;;;;;;2571674;23;20071;-89
2023/07/11 04:42:23;;;;;;;8.25;6.10;;;;;;;;;;2454776;22;10240191;-89
2023/07/11 04:43:24;;;;;;;12.07;6.30;;;;;;;;;;2586409;22;20745;-90
2023/07/11 04:44:25;;;;;;;6.45;5.85;;;;;;;;;;2566850;23;20099;-90
2023/07/11 04:45:26;;;;;;;8.50;6.05;;;;;;;;;;2554652;23;20063;-90
2023/07/11 04:46:35;;;;;;;9.05;5.80;;;;;;;;;;2571686;23;20000;-90
2023/07/11 04:47:36;;;;;;;6.93;5.82;;;;;;;;;;2584775;23;20010;-90
2023/07/11 04:48:36;;;;;;;10.00;6.13;;;;;;;;;;2582191;23;20023;-91
2023/07/11 04:49:37;;;;;;;9.25;6.03;;;;;;;;;;2592463;23;19992;-91
2023/07/11 04:50:37;;;;;;;6.68;5.43;;;;;;;;;;2596392;23;20185;-90
2023/07/11 04:51:37;;;;;;;8.02;5.82;;;;;;;;;;2595850;23;20058;-90
2023/07/11 04:52:38;;;;;;;7.32;5.40;;;;;;;;;;2595753;22;20019;-90
2023/07/11 04:53:41;;;;;;;9.48;5.22;;;;;;;;;;2570721;23;19996;-90
2023/07/11 04:54:42;;;;;;;6.65;5.43;;;;;;;;;;2555426;23;19997;-91
2023/07/11 04:55:42;;;;;;;8.70;5.30;;;;;;;;;;2554784;23;20035;-91
2023/07/11 04:56:42;;;;;;;5.63;5.03;;;;;;;;;;2567252;23;19993;-90
2023/07/11 04:57:43;;;;;;;11.70;5.43;;;;;;;;;;2583943;23;19996;-91
2023/07/11 04:58:43;;;;;;;11.35;7.10;;;;;;;;;;2584886;23;20065;-92
2023/07/11 04:59:44;;;;;;;9.23;5.97;;;;;;;;;;2567373;23;20000;-91
2023/07/11 05:00:44;;;;;;;8.40;5.78;;;;;;;;;;2571567;23;19997;-91
2023/07/11 05:01:45;;;;;;;7.90;6.00;;;;;;;;;;2579831;23;20003;-89
2023/07/11 05:02:45;;;;;;;9.15;5.30;;;;;;;;;;2567453;23;20025;-90
2023/07/11 05:03:48;;;;;;;10.20;5.45;;;;;;;;;;2567449;23;20438;-89
2023/07/11 05:04:49;;;;;;;9.57;5.72;;;;;;;;;;2584143;23;20019;-91
2023/07/11 05:05:49;;;;;;;8.20;5.35;;;;;;;;;;2567332;23;19993;-89
2023/07/11 05:06:49;;;;;;;10.23;5.15;;;;;;;;;;2567259;23;19992;-89
2023/07/11 05:07:50;;;;;;;7.22;5.47;;;;;;;;;;2571410;23;20082;-91
2023/07/11 05:08:50;;;;;;;7.97;5.30;;;;;;;;;;2580138;23;20027;-87
2023/07/11 05:09:51;;;;;;;9.52;4.97;;;;;;;;;;2586003;23;19992;-90
2023/07/11 05:11:01;;;;;;;6.78;4.88;;;;;;;;;;2581235;23;20008;-90
2023/07/11 05:12:02;;;;;;;6.97;5.40;;;;;;;;;;2579946;23;19992;-91
2023/07/11 05:13:02;;;;;;;8.15;6.25;;;;;;;;;;2567452;23;19992;-90
2023/07/11 05:14:03;;;;;;;8.30;5.50;;;;;;;;;;2555049;23;20000;-90
2023/07/11 05:15:04;;;;;;;6.97;5.38;;;;;;;;;;2571654;23;20064;-89
2023/07/11 05:16:07;;;;;;;5.95;5.18;;;;;;;;;;2580405;23;20000;-90
2023/07/11 05:17:07;;;;;;;5.75;5.25;;;;;;;;;;2584464;23;20000;-90
2023/07/11 05:18:08;;;;;;;5.65;4.60;;;;;;;;;;2585428;23;20016;-90
2023/07/11 05:19:08;;;;;;;6.32;4.90;;;;;;;;;;2584880;23;20058;-91
2023/07/11 05:20:09;;;;;;;5.78;4.75;;;;;;;;;;2584714;23;19992;-90
2023/07/11 05:21:11;;;;;;;6.65;4.80;;;;;;;;;;2585005;23;19992;-90
2023/07/11 05:22:12;;;;;;;5.15;4.57;;;;;;;;;;2585062;23;19988;-90
2023/07/11 05:23:12;;;;;;;5.72;4.80;;;;;;;;;;2580084;23;20023;-90
2023/07/11 05:24:13;;;;;;;7.57;4.50;;;;;;;;;;2567329;23;20027;-90
2023/07/11 05:25:13;;;;;;;8.37;4.77;;;;;;;;;;2121159;23;10464750;-89
2023/07/11 05:26:15;;;;;;;4.95;4.32;;;;;;;;;;2585186;23;20010;-91
2023/07/11 05:27:15;;;;;;;5.70;4.78;;;;;;;;;;2139628;22;10259132;-90
2023/07/11 05:28:16;;;;;;;5.80;4.47;;;;;;;;;;2579595;23;20038;-89
2023/07/11 05:29:16;;;;;;;6.80;4.68;;;;;;;;;;2567334;23;20000;-89
2023/07/11 05:30:17;;;;;;;6.15;4.75;;;;;;;;;;2555025;23;20372;-90
2023/07/11 05:31:18;;;;;;;7.65;4.68;;;;;;;;;;2567515;23;20056;-91
2023/07/11 05:32:19;;;;;;;8.35;5.07;;;;;;;;;;2567948;23;20000;-89
2023/07/11 05:33:20;;;;;;;6.38;5.22;;;;;;;;;;2555523;23;20001;-91
2023/07/11 05:34:20;;;;;;;6.10;4.78;;;;;;;;;;2557624;23;20001;-92
2023/07/11 05:35:21;;;;;;;7.00;4.70;;;;;;;;;;2573316;23;19993;-92
2023/07/11 05:36:34;;;;;;;5.90;5.07;;;;;;;;;;2583790;23;20333;-93
2023/07/11 05:37:34;;;;;;;7.60;4.80;;;;;;;;;;2567984;23;20390;-93
2023/07/11 05:38:35;;;;;;;8.32;4.55;;;;;;;;;;2555375;23;20399;-91
2023/07/11 05:39:35;;;;;;;6.82;5.15;;;;;;;;;;2572876;23;19993;-91
2023/07/11 05:40:35;;;;;;;5.93;4.57;;;;;;;;;;2568796;23;20319;-92
2023/07/11 05:41:38;;;;;;;7.97;4.75;;;;;;;;;;2556711;23;20494;-92
2023/07/11 05:42:38;;;;;;;7.35;4.90;;;;;;;;;;2556324;23;20045;-90
2023/07/11 05:43:39;;;;;;;5.18;4.07;;;;;;;;;;2569640;23;20007;-95
2023/07/11 05:44:39;;;;;;;5.85;4.18;;;;;;;;;;2569648;23;20016;-96
2023/07/11 05:45:45;;;;;;;5.57;4.38;;;;;;;;;;2569360;23;20063;-94
2023/07/11 05:46:45;;;;;;;8.50;5.10;;;;;;;;;;2570056;23;19996;-95
2023/07/11 05:47:54;;;;;;;7.45;4.68;;;;;;;;;;2462127;23;10439772;-94
2023/07/11 05:49:22;;;;;;;5.78;4.55;;;;;;;;;;2569724;23;20206;-96
2023/07/11 05:50:32;;;;;;;4.68;4.18;;;;;;;;;;2576415;23;20401;-94
2023/07/11 05:51:33;;;;;;;4.97;4.40;;;;;;;;;;2569728;23;19992;-93
2023/07/11 05:52:33;;;;;;;4.83;4.43;;;;;;;;;;2110892;23;10478902;-93
2023/07/11 05:53:34;;;;;;;4.88;4.38;;;;;;;;;;2569431;23;20008;-95
2023/07/11 05:54:34;;;;;;;5.60;4.63;;;;;;;;;;2582097;23;20410;-92
2023/07/11 05:55:35;;;;;;;8.30;4.63;;;;;;;;;;2573952;23;19996;-95
2023/07/11 05:56:35;;;;;;;7.68;4.50;;;;;;;;;;2571330;23;19993;-93
2023/07/11 05:57:36;;;;;;;5.20;4.68;;;;;;;;;;2575992;23;20431;-94
2023/07/11 05:58:36;;;;;;;5.35;4.20;;;;;;;;;;2577370;23;20416;-95
2023/07/11 05:59:37;;;;;;;6.65;4.57;;;;;;;;;;2569810;23;20459;-95
2023/07/11 06:00:37;;;;;;;9.45;4.95;;;;;;;;;;2574233;23;20058;-95
2023/07/11 06:01:37;;;;;;;5.82;4.60;;;;;;;;;;2569907;23;20104;-95
2023/07/11 06:02:38;;;;;;;7.47;4.70;;;;;;;;;;2574422;23;19993;-96
2023/07/11 06:03:45;;;;;;;6.05;4.57;;;;;;;;;;2582292;23;20022;-95
2023/07/11 06:04:45;;;;;;;5.75;4.63;;;;;;;;;;2571656;23;20000;-93
2023/07/11 06:05:46;;;;;;;6.63;5.05;;;;;;;;;;2557925;23;19999;-94
2023/07/11 06:06:46;;;;;;;4.95;4.35;;;;;;;;;;2569503;23;20387;-93
2023/07/11 06:07:47;;;;;;;7.55;4.32;;;;;;;;;;2569560;23;19997;-95
2023/07/11 06:08:47;;;;;;;4.30;3.90;;;;;;;;;;2569604;23;19997;-95